Latest Weather Observations for Yanco

IDN60801

Issued at 5:35 pm EDT Friday 24 October 2014 (issued every 30 minutes, with the page automatically refreshed every 10 minutes)

About weather observations | Map of weather stations | Latest weather observations for NSW | Other Formats
Station Details ID: 074037 Name: YANCO AGRICULTURAL INSTITUTE Lat: -34.62 Lon: 146.43 Height: 164.0 m
Data from the previous 72 hours. | See also: Recent months at Yanco
Date/Time
EDT
Temp
°C
App
Temp
°C
Dew
Point
Rel
Hum
%
Delta-T
°C
Wind Press
QNH
hPa
Press
MSL
hPa
Rain
since 9 am
mm
Dir
 
Spd
km/h
Gust
km/h
Spd
kts
Gust
kts
24/05:30pm 31.2 25.1 4.9 19 13.9 WSW 26 39 14 21 - - 0.0
24/05:00pm 32.5 27.0 5.9 19 14.3 W 24 35 13 19 - - 0.0
24/04:30pm 34.1 29.5 6.4 18 15.2 W 20 30 11 16 - - 0.0
24/04:00pm 33.6 28.1 6.0 18 15.0 W 24 35 13 19 - - 0.0
24/03:30pm 35.4 30.4 6.6 17 15.9 WSW 22 30 12 16 - - 0.0
24/03:00pm 34.5 29.6 6.7 18 15.3 WSW 22 32 12 17 - - 0.0
24/02:30pm 34.0 30.3 7.9 20 14.6 W 17 26 9 14 - - 0.0
24/02:00pm 33.7 29.9 7.6 20 14.6 WNW 17 24 9 13 - - 0.0
24/01:30pm 33.6 30.9 9.0 22 14.0 W 13 22 7 12 - - 0.0
24/01:00pm 33.0 30.2 8.5 22 13.8 NW 13 19 7 10 - - 0.0
24/12:30pm 32.5 30.3 9.3 24 13.2 NW 11 19 6 10 - - 0.0
24/12:00pm 30.6 28.6 10.0 28 11.8 NW 11 19 6 10 - - 0.0
24/11:30am 30.0 27.1 9.5 28 11.6 NNW 15 22 8 12 - - 0.0
24/11:00am 30.0 26.7 9.5 28 11.6 N 17 26 9 14 - - 0.0
24/10:30am 29.6 25.6 9.2 28 11.4 N 20 30 11 16 - - 0.0
24/10:00am 28.2 24.0 9.9 32 10.3 N 22 33 12 18 - - 0.0
24/09:30am 26.7 22.3 10.4 36 9.2 N 24 35 13 19 - - 0.0
24/09:00am 26.1 21.5 9.5 35 9.2 N 24 35 13 19 - - 0.0
24/08:30am 25.5 20.9 9.7 37 8.8 N 24 33 13 18 - - 0.0
24/08:00am 24.6 20.4 9.7 39 8.2 NNE 22 32 12 17 - - 0.0
24/07:30am 23.1 19.9 9.8 43 7.3 NE 17 26 9 14 - - 0.0
24/07:00am 22.3 18.7 9.8 45 6.8 NE 19 26 10 14 - - 0.0
24/06:30am 22.0 18.4 9.9 46 6.6 NE 19 30 10 16 - - 0.0
24/06:00am 22.4 18.7 9.6 44 7.0 NNE 19 26 10 14 - - 0.0
24/05:30am 23.1 19.1 9.1 41 7.6 NNE 20 32 11 17 - - 0.0
24/05:00am 23.5 18.7 8.8 39 7.9 NNE 24 32 13 17 - - 0.0
24/04:30am 23.7 18.1 8.6 38 8.1 NNE 28 43 15 23 - - 0.0
24/04:00am 24.0 19.2 8.8 38 8.2 NNE 24 33 13 18 - - 0.0
24/03:30am 24.4 19.1 8.4 36 8.6 NE 26 41 14 22 - - 0.0
24/03:00am 25.0 21.0 8.1 34 9.1 NE 19 30 10 16 - - 0.0
24/02:30am 25.5 21.5 8.1 33 9.4 NE 19 26 10 14 - - 0.0
24/02:00am 26.1 22.4 8.1 32 9.7 NE 17 24 9 13 - - 0.0
24/01:30am 26.7 22.9 7.7 30 10.2 NE 17 24 9 13 - - 0.0
24/01:00am 25.3 23.1 7.9 33 9.3 ENE 9 13 5 7 - - 0.0
24/12:30am 25.8 22.8 7.9 32 9.6 N 13 19 7 10 - - 0.0
24/12:00am 25.8 22.3 7.4 31 9.8 N 15 20 8 11 - - 0.0
 
Date/Time
EDT
Temp
°C
App
Temp
°C
Dew
Point
Rel
Hum
%
Delta-T
°C
Wind Press
QNH
hPa
Press
MSL
hPa
Rain
since 9 am
mm
Dir
 
Spd
km/h
Gust
km/h
Spd
kts
Gust
kts
23/11:30pm 27.0 23.2 7.5 29 10.5 N 17 22 9 12 - - 0.0
23/11:00pm 27.8 23.6 7.6 28 10.9 N 19 24 10 13 - - 0.0
23/10:30pm 27.1 24.1 7.5 29 10.5 N 13 19 7 10 - - 0.0
23/10:00pm 27.7 24.9 7.0 27 11.1 NNE 11 17 6 9 - - 0.0
23/09:30pm 28.1 25.8 7.4 27 11.2 NE 9 13 5 7 - - 0.0
23/09:00pm 29.8 27.4 7.1 24 12.3 NE 9 13 5 7 - - 0.0
23/08:30pm 29.0 27.1 7.6 26 11.7 NNE 7 9 4 5 - - 0.0
23/08:00pm 29.8 27.9 7.7 25 12.1 N 7 11 4 6 - - 0.0
23/07:30pm 31.1 28.7 6.9 22 13.2 N 9 15 5 8 - - 0.0
23/07:00pm 32.5 29.6 6.7 20 14.1 N 11 15 6 8 - - 0.0
23/06:30pm 33.7 31.5 6.1 18 15.0 N 7 11 4 6 - - 0.0
23/06:00pm 35.1 31.6 5.5 16 16.1 N 13 19 7 10 - - 0.0
23/05:30pm 36.2 32.3 5.5 15 16.8 NW 15 26 8 14 - - 0.0
23/05:00pm 36.0 33.0 6.2 16 16.4 WNW 11 19 6 10 - - 0.0
23/04:30pm 35.9 32.9 6.2 16 16.4 NW 11 17 6 9 - - 0.0
23/04:00pm 35.6 31.2 5.0 15 16.5 NNW 17 20 9 11 - - 0.0
23/03:30pm 35.9 31.2 5.2 15 16.7 WNW 19 26 10 14 - - 0.0
23/03:00pm 35.3 32.4 6.6 17 15.9 NNW 11 22 6 12 - - 0.0
23/02:30pm 35.2 31.0 5.6 16 16.1 NNW 17 30 9 16 - - 0.0
23/02:00pm 35.0 30.4 5.4 16 16.0 N 19 22 10 12 - - 0.0
23/01:30pm 34.8 30.3 7.0 18 15.4 NNW 20 28 11 15 - - 0.0
23/01:00pm 33.6 28.9 7.6 20 14.5 N 22 37 12 20 - - 0.0
23/12:30pm 33.3 29.0 8.0 21 14.2 N 20 32 11 17 - - 0.0
23/12:00pm 32.0 27.8 7.6 22 13.5 N 19 28 10 15 - - 0.0
23/11:30am 31.8 27.6 8.1 23 13.2 NNE 20 33 11 18 - - 0.0
23/11:00am 30.5 26.1 8.8 26 12.1 N 22 33 12 18 - - 0.0
23/10:30am 29.9 26.0 9.4 28 11.5 NNE 20 32 11 17 - - 0.0
23/10:00am 28.5 24.7 9.2 30 10.8 NE 19 26 10 14 - - 0.0
23/09:30am 26.3 23.5 10.0 36 9.1 NE 15 26 8 14 - - 0.0
23/09:00am 24.9 22.3 10.8 41 7.9 NE 15 22 8 12 - - 0.0
23/08:30am 22.9 20.9 11.6 49 6.4 E 13 17 7 9 - - 0.0
23/08:00am 21.9 19.7 12.2 54 5.5 E 15 19 8 10 - - 0.0
23/07:30am 20.9 18.7 12.1 57 5.0 E 15 19 8 10 - - 0.0
23/07:00am 21.4 19.2 10.9 51 5.8 E 13 19 7 10 - - 0.0
23/06:30am 20.3 17.9 11.5 57 4.9 ESE 15 17 8 9 - - 0.0
23/06:00am 22.4 20.0 10.2 46 6.7 NNE 13 19 7 10 - - 0.0
23/05:30am 21.1 19.8 11.2 53 5.5 NE 9 13 5 7 - - 0.0
23/05:00am 22.1 21.2 10.6 48 6.4 E 6 13 3 7 - - 0.0
23/04:30am 22.0 20.5 10.5 48 6.3 ENE 9 15 5 8 - - 0.0
23/04:00am 22.1 20.8 11.2 50 6.1 N 9 15 5 8 - - 0.0
23/03:30am 23.2 21.8 10.9 46 6.9 NE 9 13 5 7 - - 0.0
23/03:00am 23.3 21.3 11.4 47 6.7 ESE 13 17 7 9 - - 0.0
23/02:30am 23.7 21.7 11.4 46 7.0 E 13 15 7 8 - - 0.0
23/02:00am 22.0 20.4 12.8 56 5.3 ESE 13 17 7 9 - - 0.0
23/01:30am 24.0 22.9 12.0 47 6.9 S 9 11 5 6 - - 0.0
23/01:00am 21.8 19.6 13.4 59 4.9 SW 17 32 9 17 - - 0.0
23/12:30am 21.8 17.9 8.7 43 7.0 SW 19 28 10 15 - - 0.0
23/12:00am 24.2 21.6 9.4 39 8.1 NE 13 17 7 9 - - 0.0
 
Date/Time
EDT
Temp
°C
App
Temp
°C
Dew
Point
Rel
Hum
%
Delta-T
°C
Wind Press
QNH
hPa
Press
MSL
hPa
Rain
since 9 am
mm
Dir
 
Spd
km/h
Gust
km/h
Spd
kts
Gust
kts
22/11:30pm 22.2 19.1 9.0 43 7.1 E 15 19 8 10 - - 0.0
22/11:00pm 22.7 19.6 8.8 41 7.5 E 15 17 8 9 - - 0.0
22/10:30pm 23.4 20.2 8.3 38 8.1 E 15 17 8 9 - - 0.0
22/10:00pm 24.5 21.6 8.0 35 8.8 E 13 15 7 8 - - 0.0
22/09:30pm 25.4 22.9 8.4 34 9.2 E 11 15 6 8 - - 0.0
22/09:00pm 26.6 24.8 8.1 31 10.0 E 7 9 4 5 - - 0.0
22/08:30pm 26.8 25.1 8.3 31 10.1 SE 7 9 4 5 - - 0.0
22/08:00pm 28.0 26.7 7.8 28 11.0 S 4 6 2 3 - - 0.0
22/07:30pm 28.6 27.1 8.3 28 11.2 S 6 6 3 3 - - 0.0
22/07:00pm 30.5 29.5 8.8 26 12.1 WSW 4 6 2 3 - - 0.0
22/06:30pm 31.9 31.3 7.5 22 13.5 CALM 0 4 0 2 - - 0.0
22/06:00pm 32.0 31.1 7.6 22 13.5 WSW 2 6 1 3 - - 0.0
22/05:30pm 32.3 30.5 7.9 22 13.6 N 7 13 4 7 - - 0.0
22/05:00pm 32.5 31.1 8.7 23 13.4 W 6 11 3 6 - - 0.0
22/04:30pm 32.4 30.9 8.6 23 13.4 ENE 6 9 3 5 - - 0.0
22/04:00pm 31.7 29.9 8.0 23 13.2 NNE 7 15 4 8 - - 0.0
22/03:30pm 32.3 30.8 9.2 24 13.1 N 7 15 4 8 - - 0.0
22/03:00pm 31.1 28.7 8.8 25 12.5 N 11 19 6 10 - - 0.0
22/02:30pm 30.6 28.3 8.9 26 12.2 NNE 11 19 6 10 - - 0.0
22/02:00pm 30.6 27.7 9.5 27 11.9 NNW 15 20 8 11 - - 0.0
22/01:30pm 29.5 26.5 9.1 28 11.4 N 15 28 8 15 - - 0.0
22/01:00pm 28.6 25.6 9.3 30 10.8 N 15 24 8 13 - - 0.0
22/12:30pm 27.6 24.0 9.9 33 9.9 NNE 19 28 10 15 - - 0.0
22/12:00pm 26.4 22.8 9.7 35 9.3 NNE 19 32 10 17 - - 0.0
22/11:30am 24.8 20.9 9.5 38 8.4 NNE 20 30 11 16 - - 0.0
22/11:00am 24.4 20.7 10.3 41 7.8 NNE 20 30 11 16 - - 0.0
22/10:30am 22.8 18.3 9.9 44 7.1 NE 24 33 13 18 - - 0.0
22/10:00am 21.9 17.3 9.8 46 6.6 NNE 24 33 13 18 - - 0.0
22/09:30am 20.2 15.6 9.7 51 5.7 NE 24 33 13 18 - - 0.0
22/09:00am 18.7 14.1 9.8 56 4.8 NE 24 32 13 17 - - 0.0
22/08:30am 17.4 13.5 9.3 59 4.3 NE 20 35 11 19 - - 0.0
22/08:00am 16.9 13.2 9.6 62 3.8 NE 19 28 10 15 - - 0.0
22/07:30am 14.9 12.8 9.7 71 2.7 ENE 11 15 6 8 - - 0.0
22/07:00am 13.5 11.3 9.4 76 2.1 E 11 15 6 8 - - 0.0
22/06:30am 13.5 10.9 9.4 76 2.1 E 13 19 7 10 - - 0.0
22/06:00am 13.8 11.2 9.5 75 2.2 E 13 17 7 9 - - 0.0
22/05:30am 13.7 11.1 9.4 75 2.2 E 13 20 7 11 - - 0.0
22/05:00am 13.8 11.2 9.5 75 2.2 E 13 17 7 9 - - 0.0
22/04:30am 14.3 11.0 9.5 73 2.5 E 17 22 9 12 - - 0.0
22/04:00am 14.9 12.0 9.5 70 2.8 ENE 15 22 8 12 - - 0.0
22/03:30am 15.5 11.9 9.8 69 3.0 ENE 19 26 10 14 - - 0.0
22/03:00am 15.5 13.0 9.8 69 3.0 ENE 13 20 7 11 - - 0.0
22/02:30am 15.9 13.2 10.2 69 3.0 E 15 20 8 11 - - 0.0
22/02:00am 16.5 14.1 10.1 66 3.4 E 13 19 7 10 - - 0.0
22/01:30am 17.0 13.5 10.1 64 3.7 E 19 28 10 15 - - 0.0
22/01:00am 17.4 13.7 10.3 63 3.8 E 20 35 11 19 - - 0.0
22/12:30am 17.8 13.8 10.4 62 4.0 E 22 33 12 18 - - 0.0
22/12:00am 17.8 14.7 10.4 62 4.0 E 17 24 9 13 - - 0.0
 
Date/Time
EDT
Temp
°C
App
Temp
°C
Dew
Point
Rel
Hum
%
Delta-T
°C
Wind Press
QNH
hPa
Press
MSL
hPa
Rain
since 9 am
mm
Dir
 
Spd
km/h
Gust
km/h
Spd
kts
Gust
kts
21/11:30pm 18.2 15.9 10.6 61 4.1 E 13 19 7 10 - - 0.0
21/11:00pm 19.1 16.2 10.9 59 4.5 E 17 22 9 12 - - 0.0
21/10:30pm 19.3 16.1 11.1 59 4.5 E 19 26 10 14 - - 0.0
21/10:00pm 20.0 16.6 11.2 57 4.9 E 20 28 11 15 - - 0.0
21/09:30pm 20.9 17.5 11.3 54 5.3 E 20 30 11 16 - - 0.0
21/09:00pm 21.9 18.1 11.3 51 5.9 E 22 32 12 17 - - 0.0
21/08:30pm 23.1 19.7 11.2 47 6.7 E 20 30 11 16 - - 0.0
21/08:00pm 24.6 22.0 9.3 38 8.4 E 13 26 7 14 - - 0.0
21/07:30pm 25.7 23.9 7.8 32 9.6 E 7 9 4 5 - - 0.0
21/07:00pm 27.1 25.1 7.0 28 10.7 ENE 7 9 4 5 - - 0.0
21/06:30pm 28.8 26.7 6.8 25 11.8 E 7 9 4 5 - - 0.0
21/06:00pm 29.3 27.4 6.7 24 12.1 NNE 6 9 3 5 - - 0.0

Other Formats:

Comma delimited format used in spreadsheet applications
http://www.bom.gov.au/fwo/IDN60801/IDN60801.95705.axf

JavaScript Object Notation format (JSON) in row-major order
http://www.bom.gov.au/fwo/IDN60801/IDN60801.95705.json